Terminal Aerodrome Forecast
Issued by NWS Mobile, AL

Current Version | Previous Version | Text Only | Print | Product List | Glossary On
Versions: 1 2 3 4 5 6 7 8 9 10 11 12 13 14 15 16 17
000
FTUS44 KMOB 310500
TAFMOB
TAF
KMOB 310528Z 3106/0106 VRB03KT P6SM SKC
     FM311200 35006KT P6SM SKC
     FM311500 33012G18KT P6SM FEW300=

USA.gov is the U.S. government's official web portal to all federal, state and local government web resources and services.